createdAt,value
2023-05-17T00:00:54.317Z,100411.25
2023-05-17T00:03:22.173Z,100398.91
2023-05-17T00:05:49.940Z,100394.53
2023-05-17T00:08:17.466Z,100408.41
2023-05-17T00:10:45.162Z,100400.44
2023-05-17T00:13:12.747Z,100404.84
2023-05-17T00:15:40.367Z,100413.41
2023-05-17T00:18:08.021Z,100413.34
2023-05-17T00:20:36.671Z,100415.91
2023-05-17T00:23:04.376Z,100403.53
2023-05-17T00:25:31.998Z,100398.34
2023-05-17T00:27:59.613Z,100412.97
2023-05-17T00:30:29.538Z,100427.75
2023-05-17T00:32:57.820Z,100425.09
2023-05-17T00:35:25.724Z,100427.63
2023-05-17T00:37:53.471Z,100413.47
2023-05-17T00:40:21.156Z,100418.63
2023-05-17T00:42:48.964Z,100421.16
2023-05-17T00:45:16.548Z,100421.06
2023-05-17T00:47:44.460Z,100425.31
2023-05-17T00:50:15.250Z,100432.28
2023-05-17T00:52:43.066Z,100410.25
2023-05-17T00:55:10.711Z,100435.66
2023-05-17T00:57:38.707Z,100423.25
2023-05-17T01:00:07.049Z,100425.03
2023-05-17T01:02:35.136Z,100438.00
2023-05-17T01:05:03.115Z,100441.41
2023-05-17T01:07:35.057Z,100432.66
2023-05-17T01:10:02.932Z,100419.38
2023-05-17T01:12:51.043Z,100422.84
2023-05-17T01:15:31.475Z,100446.09
2023-05-17T01:18:26.584Z,100433.94
2023-05-17T01:20:59.239Z,100440.56
2023-05-17T01:24:04.155Z,100452.84
2023-05-17T01:26:39.518Z,100454.31
2023-05-17T01:29:10.137Z,100462.78
2023-05-17T01:31:39.417Z,100447.84
2023-05-17T01:34:10.946Z,100455.59
2023-05-17T01:36:38.613Z,100442.50
2023-05-17T01:39:06.199Z,100466.88
2023-05-17T01:41:41.466Z,100465.16
2023-05-17T01:44:35.764Z,100460.91
2023-05-17T01:47:15.537Z,100462.59
2023-05-17T01:49:48.904Z,100466.59
2023-05-17T01:52:35.538Z,100466.75
2023-05-17T01:55:31.131Z,100473.88
2023-05-17T01:58:00.873Z,100472.03
2023-05-17T02:00:29.885Z,100474.44
2023-05-17T02:02:58.988Z,100479.66
2023-05-17T02:05:26.838Z,100470.16
2023-05-17T02:07:54.979Z,100467.75
2023-05-17T02:10:22.930Z,100468.09
2023-05-17T02:12:50.750Z,100462.25
2023-05-17T02:15:18.419Z,100466.81
2023-05-17T02:17:46.674Z,100460.81
2023-05-17T02:20:16.235Z,100479.09
2023-05-17T02:22:43.905Z,100476.56
2023-05-17T02:25:11.579Z,100474.03
2023-05-17T02:27:41.133Z,100460.13
2023-05-17T02:30:09.463Z,100474.28
2023-05-17T02:32:37.166Z,100481.44
2023-05-17T02:35:05.476Z,100462.47
2023-05-17T02:37:33.036Z,100481.06
2023-05-17T02:40:00.645Z,100467.19
2023-05-17T02:42:28.217Z,100483.16
2023-05-17T02:44:58.142Z,100474.41
2023-05-17T02:47:26.161Z,100481.72
2023-05-17T02:49:53.972Z,100481.91
2023-05-17T02:52:21.761Z,100484.75
2023-05-17T02:54:49.778Z,100485.97
2023-05-17T02:57:17.512Z,100487.16
2023-05-17T02:59:45.158Z,100473.38
2023-05-17T03:02:13.569Z,100486.84
2023-05-17T03:04:41.325Z,100486.09
2023-05-17T03:07:09.813Z,100491.56
2023-05-17T03:09:38.247Z,100476.94
2023-05-17T03:12:06.820Z,100485.03
2023-05-17T03:14:35.789Z,100493.22
2023-05-17T03:17:03.881Z,100493.25
2023-05-17T03:19:33.841Z,100488.97
2023-05-17T03:22:01.627Z,100493.41
2023-05-17T03:24:30.734Z,100473.41
2023-05-17T03:26:58.893Z,100484.63
2023-05-17T03:29:26.451Z,100488.44
2023-05-17T03:31:54.806Z,100486.81
2023-05-17T03:34:22.580Z,100497.56
2023-05-17T03:36:50.174Z,100488.34
2023-05-17T03:39:17.795Z,100500.06
2023-05-17T03:41:45.644Z,100485.47
2023-05-17T03:44:14.391Z,100482.28
2023-05-17T03:46:41.904Z,100494.69
2023-05-17T03:49:11.785Z,100501.09
2023-05-17T03:51:40.220Z,100488.19
2023-05-17T03:54:07.836Z,100482.28
2023-05-17T03:56:35.482Z,100487.69
2023-05-17T03:59:03.328Z,100501.84
2023-05-17T04:01:31.878Z,100490.88
2023-05-17T04:04:01.619Z,100503.25
2023-05-17T04:06:29.566Z,100501.72
2023-05-17T04:08:59.506Z,100505.38
2023-05-17T04:11:27.890Z,100503.84
2023-05-17T04:13:57.057Z,100510.03
2023-05-17T04:16:25.550Z,100507.69
2023-05-17T04:18:53.440Z,100513.06
2023-05-17T04:21:21.584Z,100521.06
2023-05-17T04:23:51.674Z,100498.56
2023-05-17T04:26:20.604Z,100499.66
2023-05-17T04:28:48.854Z,100507.66
2023-05-17T04:31:18.052Z,100519.03
2023-05-17T04:33:47.021Z,100513.09
2023-05-17T04:36:14.754Z,100510.72
2023-05-17T04:38:43.259Z,100514.34
2023-05-17T04:41:14.955Z,100506.53
2023-05-17T04:43:43.908Z,100518.91
2023-05-17T04:46:19.486Z,100519.84
2023-05-17T04:48:48.241Z,100497.28
2023-05-17T04:51:51.892Z,100516.78
2023-05-17T04:54:19.732Z,100518.53
2023-05-17T04:56:47.534Z,100513.41
2023-05-17T04:59:23.746Z,100507.38
2023-05-17T05:01:51.745Z,100516.22
2023-05-17T05:08:34.773Z,100522.59
2023-05-17T05:11:02.983Z,100512.19
2023-05-17T05:13:32.267Z,100517.63
2023-05-17T05:16:00.248Z,100514.19
2023-05-17T05:18:28.276Z,100522.13
2023-05-17T05:20:57.948Z,100509.06
2023-05-17T05:23:27.523Z,100525.72
2023-05-17T05:25:55.427Z,100519.72
2023-05-17T05:28:23.086Z,100518.13
2023-05-17T05:30:57.395Z,100505.19
2023-05-17T05:33:25.701Z,100514.84
2023-05-17T05:35:53.653Z,100523.66
2023-05-17T05:38:21.367Z,100520.25
2023-05-17T05:40:49.270Z,100504.53
2023-05-17T05:43:42.245Z,100521.28
2023-05-17T05:46:10.043Z,100521.22
2023-05-17T05:48:41.828Z,100511.66
2023-05-17T05:51:09.819Z,100511.66
2023-05-17T05:53:40.329Z,100524.78
2023-05-17T06:00:16.090Z,100503.09
2023-05-17T06:02:43.797Z,100526.66
2023-05-17T06:05:11.925Z,100526.66
2023-05-17T06:07:39.840Z,100526.69
2023-05-17T06:10:08.025Z,100524.06
2023-05-17T06:12:35.880Z,100514.47
2023-05-17T06:15:04.101Z,100505.75
2023-05-17T06:17:33.529Z,100502.34
2023-05-17T06:20:01.449Z,100504.94
2023-05-17T06:22:53.604Z,100518.03
2023-05-17T06:25:21.638Z,100521.53
2023-05-17T06:27:50.086Z,100518.03
2023-05-17T06:30:17.798Z,100519.75
2023-05-17T06:32:45.460Z,100521.50
2023-05-17T06:37:57.866Z,100515.38
2023-05-17T06:40:25.518Z,100511.88
2023-05-17T06:42:53.305Z,100514.50
2023-05-17T06:45:21.897Z,100519.59
2023-05-17T06:50:34.702Z,100515.00
2023-05-17T06:53:02.974Z,100510.56
2023-05-17T06:55:31.827Z,100526.16
2023-05-17T06:58:00.389Z,100524.31
2023-05-17T07:00:29.242Z,100517.97
2023-05-17T07:02:57.139Z,100522.03
2023-05-17T07:05:24.921Z,100516.34
2023-05-17T07:07:53.203Z,100523.81
2023-05-17T07:10:21.271Z,100524.63
2023-05-17T07:12:48.845Z,100515.09
2023-05-17T07:15:16.455Z,100526.16
2023-05-17T07:17:44.238Z,100498.63
2023-05-17T07:20:13.095Z,100506.81
2023-05-17T07:22:41.433Z,100506.72
2023-05-17T07:25:09.717Z,100515.06
2023-05-17T07:27:37.587Z,100512.91
2023-05-17T07:30:07.365Z,100504.41
2023-05-17T07:32:53.725Z,100485.66
2023-05-17T07:35:21.912Z,100502.56
2023-05-17T07:37:49.781Z,100502.22
2023-05-17T07:40:17.609Z,100504.50
2023-05-17T07:42:45.330Z,100489.75
2023-05-17T07:45:15.453Z,100499.19
2023-05-17T07:47:48.121Z,100494.94
2023-05-17T07:50:16.663Z,100499.50
2023-05-17T07:52:44.313Z,100490.47
2023-05-17T07:55:12.430Z,100487.72
2023-05-17T07:57:40.292Z,100494.72
2023-05-17T08:00:08.980Z,100494.53
2023-05-17T08:02:41.315Z,100497.94
2023-05-17T08:05:09.593Z,100498.53
2023-05-17T08:07:37.284Z,100493.75
2023-05-17T08:10:05.496Z,100487.25
2023-05-17T08:12:34.132Z,100486.50
2023-05-17T08:15:01.945Z,100482.88
2023-05-17T08:17:30.664Z,100495.84
2023-05-17T08:19:58.415Z,100479.63
2023-05-17T08:22:26.582Z,100472.09
2023-05-17T08:24:54.406Z,100491.94
2023-05-17T08:27:22.272Z,100491.41
2023-05-17T08:29:52.744Z,100496.25
2023-05-17T08:32:21.310Z,100481.09
2023-05-17T08:34:48.946Z,100481.09
2023-05-17T08:37:19.100Z,100475.59
2023-05-17T08:39:48.339Z,100482.22
2023-05-17T08:42:21.824Z,100483.22
2023-05-17T08:44:50.643Z,100482.53
2023-05-17T08:47:26.357Z,100475.50
2023-05-17T08:50:00.556Z,100475.63
2023-05-17T08:52:35.609Z,100484.59
2023-05-17T08:55:04.064Z,100476.22
2023-05-17T08:57:37.847Z,100475.56
2023-05-17T09:00:12.565Z,100478.88
2023-05-17T09:02:42.432Z,100478.81
2023-05-17T09:05:11.077Z,100473.81
2023-05-17T09:07:38.859Z,100481.63
2023-05-17T09:10:07.813Z,100488.09
2023-05-17T09:12:36.417Z,100481.41
2023-05-17T09:15:18.445Z,100486.53
2023-05-17T09:17:57.068Z,100457.47
2023-05-17T09:20:39.600Z,100467.31
2023-05-17T09:23:10.314Z,100452.03
2023-05-17T09:25:37.959Z,100442.94
2023-05-17T09:28:10.429Z,100456.06
2023-05-17T09:30:39.708Z,100450.59
2023-05-17T09:33:15.162Z,100468.44
2023-05-17T09:35:45.989Z,100463.03
2023-05-17T09:38:14.306Z,100459.56
2023-05-17T09:40:44.057Z,100455.06
2023-05-17T09:43:12.671Z,100441.22
2023-05-17T09:45:41.417Z,100452.34
2023-05-17T09:48:13.926Z,100444.84
2023-05-17T09:50:46.437Z,100448.91
2023-05-17T09:53:26.620Z,100439.44
2023-05-17T09:55:57.330Z,100444.38
2023-05-17T09:58:26.251Z,100433.16
2023-05-17T10:00:57.837Z,100437.34
2023-05-17T10:03:37.117Z,100439.91
2023-05-17T10:06:13.460Z,100439.25
2023-05-17T10:08:53.197Z,100427.16
2023-05-17T10:11:34.156Z,100439.97
2023-05-17T10:14:13.327Z,100448.34
2023-05-17T10:16:41.740Z,100440.84
2023-05-17T10:19:11.753Z,100433.47
2023-05-17T10:21:40.888Z,100434.50
2023-05-17T10:24:10.202Z,100430.34
2023-05-17T10:26:38.805Z,100423.56
2023-05-17T10:29:07.494Z,100429.00
2023-05-17T10:31:36.552Z,100428.13
2023-05-17T10:34:06.595Z,100420.75
2023-05-17T10:36:34.568Z,100409.53
2023-05-17T10:39:02.624Z,100411.53
2023-05-17T10:41:33.909Z,100430.22
2023-05-17T10:44:04.487Z,100417.13
2023-05-17T10:46:32.487Z,100416.50
2023-05-17T10:49:01.394Z,100405.47
2023-05-17T10:51:37.938Z,100408.75
2023-05-17T10:54:11.968Z,100404.34
2023-05-17T10:56:49.309Z,100408.94
2023-05-17T10:59:28.202Z,100393.38
2023-05-17T11:02:09.154Z,100408.25
2023-05-17T11:04:51.115Z,100398.22
2023-05-17T11:07:19.380Z,100397.63
2023-05-17T11:09:51.024Z,100387.16
2023-05-17T11:12:31.228Z,100392.09
2023-05-17T11:15:00.566Z,100389.34
2023-05-17T11:17:35.912Z,100374.75
2023-05-17T11:20:31.906Z,100397.25
2023-05-17T11:23:05.119Z,100388.94
2023-05-17T11:25:39.586Z,100389.53
2023-05-17T11:28:20.498Z,100387.53
2023-05-17T11:30:52.169Z,100381.13
2023-05-17T11:33:38.541Z,100379.59
2023-05-17T11:36:15.548Z,100388.03
2023-05-17T11:38:43.362Z,100366.41
2023-05-17T11:41:27.008Z,100363.16
2023-05-17T11:43:55.564Z,100375.28
2023-05-17T11:46:25.607Z,100376.47
2023-05-17T11:48:54.587Z,100361.59
2023-05-17T11:51:25.094Z,100359.22
2023-05-17T11:53:58.105Z,100360.19
2023-05-17T11:56:39.457Z,100351.84
2023-05-17T11:59:11.154Z,100340.84
2023-05-17T12:01:44.260Z,100351.81
2023-05-17T12:04:12.152Z,100336.63
2023-05-17T12:06:40.667Z,100349.56
2023-05-17T12:09:11.214Z,100338.88
2023-05-17T12:12:07.194Z,100342.81
2023-05-17T12:19:33.026Z,100328.69
2023-05-17T12:22:08.745Z,100322.94
2023-05-17T12:24:38.387Z,100319.13
2023-05-17T12:27:06.664Z,100320.06
2023-05-17T12:29:35.684Z,100322.44
2023-05-17T12:32:04.532Z,100331.06
2023-05-17T12:34:32.355Z,100317.31
2023-05-17T12:37:00.362Z,100322.72
2023-05-17T12:39:28.114Z,100314.00
2023-05-17T12:41:56.458Z,100313.25
2023-05-17T12:44:25.698Z,100297.69
2023-05-17T12:46:56.318Z,100292.34
2023-05-17T12:49:24.446Z,100301.81
2023-05-17T12:51:52.169Z,100281.03
2023-05-17T12:54:29.694Z,100294.38
2023-05-17T12:56:57.640Z,100302.88
2023-05-17T12:59:26.125Z,100303.69
2023-05-17T13:01:58.475Z,100292.31
2023-05-17T13:04:32.058Z,100302.50
2023-05-17T13:07:02.517Z,100298.97
2023-05-17T13:09:32.133Z,100294.06
2023-05-17T13:12:10.774Z,100295.31
2023-05-17T13:14:46.200Z,100307.00
2023-05-17T13:17:15.528Z,100291.44
2023-05-17T13:19:43.297Z,100288.94
2023-05-17T13:22:11.131Z,100283.00
2023-05-17T13:24:40.136Z,100278.84
2023-05-17T13:27:08.376Z,100292.97
2023-05-17T13:29:40.490Z,100298.44
2023-05-17T13:32:11.655Z,100286.44
2023-05-17T13:34:40.719Z,100291.03
2023-05-17T13:37:12.117Z,100286.81
2023-05-17T13:39:42.213Z,100294.78
2023-05-17T13:42:11.457Z,100270.38
2023-05-17T13:44:39.686Z,100281.66
2023-05-17T13:47:07.788Z,100271.28
2023-05-17T13:49:36.308Z,100279.19
2023-05-17T13:52:04.342Z,100288.00
2023-05-17T13:54:33.057Z,100288.22
2023-05-17T13:57:02.227Z,100280.44
2023-05-17T13:59:29.921Z,100283.19
2023-05-17T14:01:58.188Z,100269.34
2023-05-17T14:04:25.924Z,100276.38
2023-05-17T14:06:55.213Z,100273.75
2023-05-17T14:09:23.304Z,100264.31
2023-05-17T14:11:53.048Z,100266.09
2023-05-17T14:14:20.956Z,100260.88
2023-05-17T14:16:49.521Z,100274.03
2023-05-17T14:19:21.868Z,100267.09
2023-05-17T14:21:50.465Z,100263.63
2023-05-17T14:24:18.478Z,100269.75
2023-05-17T14:26:46.287Z,100271.59
2023-05-17T14:29:14.308Z,100270.78
2023-05-17T14:31:42.581Z,100270.81
2023-05-17T14:34:10.300Z,100261.28
2023-05-17T14:36:39.530Z,100256.06
2023-05-17T14:39:11.195Z,100262.19
2023-05-17T14:41:39.715Z,100259.59
2023-05-17T14:44:07.433Z,100249.28
2023-05-17T14:46:35.033Z,100240.59
2023-05-17T14:49:02.901Z,100258.91
2023-05-17T14:51:30.703Z,100256.28
2023-05-17T14:53:59.294Z,100242.34
2023-05-17T14:56:29.133Z,100248.50
2023-05-17T14:59:10.418Z,100258.06
2023-05-17T15:01:38.664Z,100260.78
2023-05-17T15:04:06.346Z,100236.41
2023-05-17T15:06:34.112Z,100258.19
2023-05-17T15:09:04.107Z,100255.56
2023-05-17T15:11:31.845Z,100248.56
2023-05-17T15:13:59.782Z,100251.31
2023-05-17T15:16:27.624Z,100223.47
2023-05-17T15:18:59.633Z,100250.47
2023-05-17T15:21:27.983Z,100242.66
2023-05-17T15:23:55.564Z,100245.31
2023-05-17T15:26:23.288Z,100256.69
2023-05-17T15:28:51.274Z,100260.16
2023-05-17T15:31:19.198Z,100254.94
2023-05-17T15:33:46.963Z,100252.34
2023-05-17T15:36:16.385Z,100256.75
2023-05-17T15:38:46.303Z,100253.22
2023-05-17T15:41:16.900Z,100252.38
2023-05-17T15:43:44.685Z,100242.81
2023-05-17T15:46:12.350Z,100250.66
2023-05-17T15:48:40.047Z,100248.03
2023-05-17T15:51:07.706Z,100243.75
2023-05-17T15:53:35.434Z,100249.00
2023-05-17T15:56:03.137Z,100243.78
2023-05-17T15:58:34.507Z,100246.44
2023-05-17T16:01:04.713Z,100250.75
2023-05-17T16:03:34.066Z,100256.91
2023-05-17T16:06:04.438Z,100252.53
2023-05-17T16:08:32.863Z,100255.19
2023-05-17T16:11:02.493Z,100261.31
2023-05-17T16:13:31.198Z,100246.47
2023-05-17T16:16:00.273Z,100254.34
2023-05-17T16:18:29.840Z,100252.56
2023-05-17T16:21:04.260Z,100255.25
2023-05-17T16:23:32.746Z,100239.59
2023-05-17T16:26:00.405Z,100255.28
2023-05-17T16:28:32.505Z,100257.03
2023-05-17T16:31:01.371Z,100255.28
2023-05-17T16:33:29.114Z,100260.53
2023-05-17T16:35:58.080Z,100249.28
2023-05-17T16:38:29.512Z,100260.59
2023-05-17T16:40:57.654Z,100261.47
2023-05-17T16:43:25.910Z,100256.25
2023-05-17T16:45:53.683Z,100251.06
2023-05-17T16:48:21.455Z,100242.38
2023-05-17T16:50:49.773Z,100244.97
2023-05-17T16:53:17.421Z,100258.06
2023-05-17T16:55:45.089Z,100254.56
2023-05-17T16:58:16.051Z,100258.91
2023-05-17T17:00:44.176Z,100246.75
2023-05-17T17:03:11.899Z,100258.09
2023-05-17T17:05:39.461Z,100252.00
2023-05-17T17:08:07.221Z,100257.22
2023-05-17T17:10:36.145Z,100255.50
2023-05-17T17:13:03.952Z,100245.94
2023-05-17T17:15:31.716Z,100246.81
2023-05-17T17:17:59.588Z,100259.84
2023-05-17T17:20:27.324Z,100248.53
2023-05-17T17:22:55.800Z,100254.66
2023-05-17T17:25:24.861Z,100256.41
2023-05-17T17:27:53.377Z,100265.97
2023-05-17T17:30:21.815Z,100270.34
2023-05-17T17:32:50.714Z,100252.91
2023-05-17T17:35:18.480Z,100266.88
2023-05-17T17:37:46.203Z,100270.34
2023-05-17T17:40:14.090Z,100274.72
2023-05-17T17:42:41.642Z,100269.47
2023-05-17T17:45:09.760Z,100262.44
2023-05-17T17:47:37.407Z,100285.97
2023-05-17T17:50:05.670Z,100287.72
2023-05-17T17:52:33.403Z,100282.50
2023-05-17T17:55:01.168Z,100274.66
2023-05-17T17:57:33.639Z,100283.34
2023-05-17T18:00:01.347Z,100296.41
2023-05-17T18:02:32.082Z,100293.75
2023-05-17T18:04:59.758Z,100300.72
2023-05-17T18:07:27.312Z,100301.59
2023-05-17T18:09:56.602Z,100298.13
2023-05-17T18:12:27.139Z,100297.25
2023-05-17T18:14:54.981Z,100291.13
2023-05-17T18:17:22.890Z,100289.38
2023-05-17T18:19:52.127Z,100294.56
2023-05-17T18:22:19.776Z,100296.28
2023-05-17T18:24:47.482Z,100281.44
2023-05-17T18:27:15.242Z,100294.50
2023-05-17T18:29:43.075Z,100295.38
2023-05-17T18:32:10.842Z,100290.09
2023-05-17T18:34:38.574Z,100300.50
2023-05-17T18:37:06.319Z,100292.66
2023-05-17T18:39:34.320Z,100295.28
2023-05-17T18:42:02.673Z,100293.47
2023-05-17T18:44:30.546Z,100290.84
2023-05-17T18:46:58.311Z,100292.53
2023-05-17T18:49:27.296Z,100286.44
2023-05-17T18:51:55.099Z,100274.19
2023-05-17T18:54:23.552Z,100294.19
2023-05-17T18:56:51.182Z,100276.69
2023-05-17T18:59:19.422Z,100288.00
2023-05-17T19:01:47.166Z,100283.59
2023-05-17T19:04:14.825Z,100295.78
2023-05-17T19:06:42.524Z,100281.81
2023-05-17T19:09:10.184Z,100289.63
2023-05-17T19:11:37.907Z,100282.59
2023-05-17T19:14:06.014Z,100298.28
2023-05-17T19:16:33.725Z,100293.91
2023-05-17T19:19:01.837Z,100299.91
2023-05-17T19:21:32.806Z,100292.94
2023-05-17T19:24:01.111Z,100306.03
2023-05-17T19:26:29.267Z,100301.72
2023-05-17T19:28:57.084Z,100305.22
2023-05-17T19:31:24.716Z,100310.47
2023-05-17T19:33:52.331Z,100292.97
2023-05-17T19:36:19.992Z,100313.03
2023-05-17T19:38:49.333Z,100305.22
2023-05-17T19:41:18.245Z,100301.72
2023-05-17T19:43:45.991Z,100293.75
2023-05-17T19:46:13.718Z,100314.66
2023-05-17T19:48:41.401Z,100304.16
2023-05-17T19:51:09.245Z,100300.63
2023-05-17T19:53:50.728Z,100305.84
2023-05-17T19:56:20.020Z,100311.03
2023-05-17T19:58:47.588Z,100303.09
2023-05-17T20:01:15.618Z,100309.19
2023-05-17T20:03:43.590Z,100301.25
2023-05-17T20:06:14.427Z,100311.72
2023-05-17T20:08:42.594Z,100315.19
2023-05-17T20:11:10.985Z,100310.88
2023-05-17T20:13:40.571Z,100314.38
2023-05-17T20:16:13.203Z,100302.16
2023-05-17T20:18:45.100Z,100316.03
2023-05-17T20:21:19.835Z,100312.50
2023-05-17T20:23:47.790Z,100289.75
2023-05-17T20:26:25.649Z,100308.97
2023-05-17T20:28:54.169Z,100295.84
2023-05-17T20:31:21.912Z,100302.78
2023-05-17T20:33:49.639Z,100299.22
2023-05-17T20:36:17.271Z,100288.72
2023-05-17T20:38:45.044Z,100312.22
2023-05-17T20:41:15.022Z,100295.66
2023-05-17T20:43:46.975Z,100307.91
2023-05-17T20:46:14.803Z,100302.69
2023-05-17T20:48:43.274Z,100306.16
2023-05-17T20:51:11.198Z,100301.72
2023-05-17T20:53:40.050Z,100308.59
2023-05-17T20:56:09.253Z,100286.84
2023-05-17T20:58:36.963Z,100309.47
2023-05-17T21:01:05.934Z,100313.69
2023-05-17T21:03:34.157Z,100301.47
2023-05-17T21:06:02.460Z,100304.03
2023-05-17T21:08:30.109Z,100303.28
2023-05-17T21:10:57.778Z,100285.72
2023-05-17T21:13:25.910Z,100305.78
2023-05-17T21:15:54.612Z,100314.47
2023-05-17T21:18:23.835Z,100311.03
2023-05-17T21:20:52.293Z,100303.94
2023-05-17T21:23:20.371Z,100307.47
2023-05-17T21:25:49.203Z,100303.94
2023-05-17T21:28:17.077Z,100309.16
2023-05-17T21:30:44.792Z,100311.72
2023-05-17T21:33:12.642Z,100316.91
2023-05-17T21:35:40.241Z,100302.06
2023-05-17T21:38:09.758Z,100311.63
2023-05-17T21:40:39.012Z,100312.41
2023-05-17T21:43:13.748Z,100300.16
2023-05-17T21:45:41.991Z,100300.91
2023-05-17T21:48:09.667Z,100311.41
2023-05-17T21:50:37.500Z,100301.75
2023-05-17T21:53:05.105Z,100303.44
2023-05-17T21:55:41.341Z,100291.19
2023-05-17T21:58:21.425Z,100280.78
2023-05-17T22:00:49.226Z,100293.00
2023-05-17T22:03:16.952Z,100301.66
2023-05-17T22:05:44.776Z,100306.84
2023-05-17T22:08:12.343Z,100311.97
2023-05-17T22:10:40.560Z,100306.72
2023-05-17T22:13:12.273Z,100305.91
2023-05-17T22:15:41.775Z,100297.09
2023-05-17T22:18:12.610Z,100311.00
2023-05-17T22:20:40.493Z,100310.88
2023-05-17T22:23:08.180Z,100301.19
2023-05-17T22:25:35.916Z,100311.63
2023-05-17T22:28:03.920Z,100300.09
2023-05-17T22:30:31.944Z,100309.63
2023-05-17T22:33:01.182Z,100316.50
2023-05-17T22:35:29.147Z,100305.13
2023-05-17T22:50:36.954Z,100301.31
2023-05-17T22:53:06.047Z,100295.19
2023-05-17T22:55:33.684Z,100297.69
2023-05-17T22:58:01.289Z,100294.94
2023-05-17T23:00:29.255Z,100291.34
2023-05-17T23:02:57.015Z,100303.47
2023-05-17T23:05:24.976Z,100314.69
2023-05-17T23:07:53.489Z,100312.88
2023-05-17T23:10:21.216Z,100309.44
2023-05-17T23:12:51.491Z,100303.19
2023-05-17T23:15:20.790Z,100302.31
2023-05-17T23:17:48.793Z,100308.41
2023-05-17T23:20:17.086Z,100311.06
2023-05-17T23:22:44.696Z,100306.53
2023-05-17T23:25:12.349Z,100308.28
2023-05-17T23:27:40.035Z,100316.13
2023-05-17T23:30:09.415Z,100318.72
2023-05-17T23:32:37.366Z,100314.41
2023-05-17T23:35:05.351Z,100320.44
2023-05-17T23:37:37.184Z,100308.22
2023-05-17T23:40:05.756Z,100313.47
2023-05-17T23:42:34.132Z,100325.53
2023-05-17T23:45:03.460Z,100323.75
2023-05-17T23:47:34.590Z,100316.72
2023-05-17T23:50:03.485Z,100329.69
2023-05-17T23:52:33.384Z,100328.72
2023-05-17T23:55:01.724Z,100332.97
2023-05-17T23:57:32.240Z,100334.66
